createdAt,value
2023-05-19T00:00:56.645Z,100266.81
2023-05-19T00:03:24.724Z,100263.00
2023-05-19T00:05:53.992Z,100262.13
2023-05-19T00:08:23.249Z,100259.16
2023-05-19T00:10:54.237Z,100261.69
2023-05-19T00:13:23.025Z,100255.94
2023-05-19T00:15:50.770Z,100256.44
2023-05-19T00:18:19.652Z,100264.50
2023-05-19T00:20:47.002Z,100263.53
2023-05-19T00:23:14.437Z,100259.19
2023-05-19T00:25:41.874Z,100250.94
2023-05-19T00:28:09.363Z,100258.50
2023-05-19T00:30:36.853Z,100260.69
2023-05-19T00:33:04.354Z,100255.63
2023-05-19T00:35:33.410Z,100259.00
2023-05-19T00:38:00.783Z,100256.84
2023-05-19T00:40:30.560Z,100256.47
2023-05-19T00:43:00.422Z,100258.31
2023-05-19T00:45:28.085Z,100252.44
2023-05-19T00:47:55.434Z,100263.72
2023-05-19T00:50:23.199Z,100251.59
2023-05-19T00:52:52.082Z,100259.84
2023-05-19T00:55:21.203Z,100258.00
2023-05-19T00:57:49.878Z,100256.16
2023-05-19T01:00:17.594Z,100255.66
2023-05-19T01:02:45.041Z,100256.66
2023-05-19T01:05:13.055Z,100250.97
2023-05-19T01:07:41.272Z,100246.59
2023-05-19T01:10:10.833Z,100242.56
2023-05-19T01:12:38.945Z,100244.91
2023-05-19T01:15:07.771Z,100241.88
2023-05-19T01:17:41.617Z,100234.50
2023-05-19T01:20:16.714Z,100242.56
2023-05-19T01:23:18.744Z,100232.16
2023-05-19T01:26:35.664Z,100232.81
2023-05-19T01:29:14.871Z,100231.81
2023-05-19T01:31:44.243Z,100231.47
2023-05-19T01:34:13.251Z,100233.13
2023-05-19T01:36:42.547Z,100230.13
2023-05-19T01:39:10.217Z,100230.97
2023-05-19T01:41:39.650Z,100231.47
2023-05-19T01:44:07.921Z,100218.41
2023-05-19T01:46:36.030Z,100219.03
2023-05-19T01:49:05.336Z,100225.28
2023-05-19T01:51:32.750Z,100222.41
2023-05-19T01:54:00.205Z,100223.75
2023-05-19T01:56:49.904Z,100223.03
2023-05-19T01:59:30.729Z,100230.06
2023-05-19T02:02:02.280Z,100230.25
2023-05-19T02:04:37.139Z,100227.72
2023-05-19T02:07:12.775Z,100228.00
2023-05-19T02:09:57.750Z,100227.84
2023-05-19T02:12:28.949Z,100232.41
2023-05-19T02:15:03.760Z,100220.50
2023-05-19T02:17:33.306Z,100224.38
2023-05-19T02:20:02.126Z,100224.06
2023-05-19T02:22:29.492Z,100218.22
2023-05-19T02:24:57.084Z,100208.31
2023-05-19T02:27:24.387Z,100213.16
2023-05-19T02:29:52.174Z,100211.31
2023-05-19T02:32:20.532Z,100205.13
2023-05-19T02:34:48.057Z,100210.81
2023-05-19T02:37:16.919Z,100212.66
2023-05-19T02:39:44.317Z,100209.63
2023-05-19T02:42:11.719Z,100213.16
2023-05-19T02:44:39.124Z,100207.59
2023-05-19T02:47:06.635Z,100204.91
2023-05-19T02:49:36.789Z,100209.63
2023-05-19T02:52:04.984Z,100216.69
2023-05-19T02:54:34.430Z,100216.34
2023-05-19T02:57:02.233Z,100210.63
2023-05-19T02:59:29.583Z,100206.94
2023-05-19T03:02:01.550Z,100212.47
2023-05-19T03:04:29.448Z,100213.25
2023-05-19T03:06:56.967Z,100213.25
2023-05-19T03:09:26.994Z,100210.19
2023-05-19T03:11:55.701Z,100210.56
2023-05-19T03:14:23.027Z,100212.59
2023-05-19T03:16:50.586Z,100212.91
2023-05-19T03:19:18.152Z,100216.66
2023-05-19T03:21:45.673Z,100215.81
2023-05-19T03:24:13.177Z,100208.59
2023-05-19T03:26:40.702Z,100208.41
2023-05-19T03:29:09.487Z,100209.91
2023-05-19T03:31:36.830Z,100212.59
2023-05-19T03:34:04.214Z,100195.00
2023-05-19T03:36:31.582Z,100199.84
2023-05-19T03:38:59.061Z,100200.50
2023-05-19T03:41:26.420Z,100204.88
2023-05-19T03:43:53.731Z,100196.38
2023-05-19T03:46:22.508Z,100192.28
2023-05-19T03:48:49.940Z,100188.09
2023-05-19T03:51:17.250Z,100191.28
2023-05-19T03:53:44.619Z,100194.75
2023-05-19T03:56:12.167Z,100197.59
2023-05-19T03:58:39.783Z,100192.09
2023-05-19T04:01:07.235Z,100200.00
2023-05-19T04:03:36.021Z,100191.44
2023-05-19T04:06:03.417Z,100196.63
2023-05-19T04:08:30.767Z,100188.78
2023-05-19T04:10:58.376Z,100188.06
2023-05-19T04:13:25.855Z,100190.06
2023-05-19T04:15:53.337Z,100187.41
2023-05-19T04:18:20.679Z,100194.72
2023-05-19T04:20:49.465Z,100190.81
2023-05-19T04:23:16.906Z,100180.75
2023-05-19T04:25:44.328Z,100185.56
2023-05-19T04:28:11.678Z,100191.56
2023-05-19T04:30:39.220Z,100188.53
2023-05-19T04:33:06.684Z,100193.84
2023-05-19T04:35:34.135Z,100201.72
2023-05-19T04:38:02.881Z,100203.50
2023-05-19T04:40:30.473Z,100196.03
2023-05-19T04:42:57.991Z,100197.09
2023-05-19T04:45:25.493Z,100204.13
2023-05-19T04:47:52.957Z,100200.44
2023-05-19T04:50:20.315Z,100194.09
2023-05-19T04:52:47.642Z,100201.81
2023-05-19T04:55:16.557Z,100195.31
2023-05-19T04:57:46.128Z,100195.84
2023-05-19T05:00:14.336Z,100197.81
2023-05-19T05:02:41.842Z,100194.47
2023-05-19T05:05:09.788Z,100191.94
2023-05-19T05:07:37.259Z,100200.81
2023-05-19T05:10:06.049Z,100197.97
2023-05-19T05:12:35.659Z,100197.50
2023-05-19T05:15:03.850Z,100207.69
2023-05-19T05:17:31.714Z,100205.44
2023-05-19T05:19:59.790Z,100210.84
2023-05-19T05:22:27.721Z,100205.03
2023-05-19T05:24:55.734Z,100209.09
2023-05-19T05:27:23.220Z,100205.22
2023-05-19T05:29:52.570Z,100210.50
2023-05-19T05:32:19.961Z,100213.34
2023-05-19T05:34:47.353Z,100211.66
2023-05-19T05:37:15.433Z,100204.53
2023-05-19T05:39:43.038Z,100200.75
2023-05-19T05:42:10.953Z,100205.63
2023-05-19T05:44:38.468Z,100200.81
2023-05-19T05:47:08.742Z,100206.94
2023-05-19T05:49:36.944Z,100204.97
2023-05-19T05:52:06.547Z,100208.44
2023-05-19T05:54:35.038Z,100203.56
2023-05-19T05:57:02.962Z,100200.78
2023-05-19T05:59:30.344Z,100200.34
2023-05-19T06:01:57.811Z,100197.28
2023-05-19T06:04:26.556Z,100198.28
2023-05-19T06:06:53.880Z,100194.09
2023-05-19T06:09:21.369Z,100191.50
2023-05-19T06:11:48.707Z,100207.66
2023-05-19T06:14:16.083Z,100210.13
2023-05-19T06:16:45.681Z,100212.66
2023-05-19T06:19:13.710Z,100216.03
2023-05-19T06:21:45.252Z,100211.00
2023-05-19T06:24:15.416Z,100210.16
2023-05-19T06:26:42.725Z,100213.44
2023-05-19T06:29:10.150Z,100210.72
2023-05-19T06:31:40.831Z,100218.22
2023-05-19T06:34:08.429Z,100214.47
2023-05-19T06:36:35.792Z,100216.69
2023-05-19T06:39:04.509Z,100218.81
2023-05-19T06:41:31.894Z,100216.38
2023-05-19T06:43:59.229Z,100214.66
2023-05-19T06:46:26.724Z,100213.28
2023-05-19T06:48:54.024Z,100218.22
2023-05-19T06:51:21.335Z,100214.13
2023-05-19T06:53:48.767Z,100221.84
2023-05-19T06:56:17.495Z,100216.47
2023-05-19T06:58:45.064Z,100218.50
2023-05-19T07:01:12.442Z,100216.44
2023-05-19T07:03:40.076Z,100218.59
2023-05-19T07:06:08.495Z,100222.00
2023-05-19T07:08:36.092Z,100225.22
2023-05-19T07:11:03.756Z,100215.94
2023-05-19T07:13:32.621Z,100216.31
2023-05-19T07:16:00.065Z,100219.72
2023-05-19T07:18:27.632Z,100226.03
2023-05-19T07:20:54.979Z,100220.38
2023-05-19T07:23:22.490Z,100225.03
2023-05-19T07:25:49.819Z,100223.72
2023-05-19T07:28:17.162Z,100217.69
2023-05-19T07:30:45.891Z,100219.28
2023-05-19T07:33:13.424Z,100218.31
2023-05-19T07:35:41.367Z,100226.22
2023-05-19T07:38:08.717Z,100225.72
2023-05-19T07:40:36.159Z,100225.13
2023-05-19T07:43:03.554Z,100227.91
2023-05-19T07:45:30.907Z,100221.66
2023-05-19T07:47:59.723Z,100223.53
2023-05-19T07:50:27.400Z,100214.44
2023-05-19T07:52:54.801Z,100212.56
2023-05-19T07:55:22.217Z,100220.06
2023-05-19T07:57:49.729Z,100221.16
2023-05-19T08:00:20.414Z,100217.41
2023-05-19T08:02:50.780Z,100212.63
2023-05-19T08:05:22.612Z,100213.16
2023-05-19T08:07:52.701Z,100214.09
2023-05-19T08:10:46.419Z,100201.88
2023-05-19T08:13:13.793Z,100210.16
2023-05-19T08:15:41.382Z,100209.66
2023-05-19T08:18:44.090Z,100212.94
2023-05-19T08:21:12.830Z,100208.13
2023-05-19T08:23:40.161Z,100208.50
2023-05-19T08:26:07.638Z,100209.88
2023-05-19T08:28:35.009Z,100221.03
2023-05-19T08:31:02.460Z,100215.97
2023-05-19T08:33:29.926Z,100220.09
2023-05-19T08:35:57.272Z,100222.53
2023-05-19T08:38:26.365Z,100220.22
2023-05-19T08:40:53.934Z,100210.56
2023-05-19T08:43:21.529Z,100209.94
2023-05-19T08:45:48.816Z,100207.31
2023-05-19T08:48:18.098Z,100205.38
2023-05-19T08:50:57.017Z,100199.66
2023-05-19T08:53:33.658Z,100210.69
2023-05-19T08:56:06.176Z,100202.25
2023-05-19T08:58:34.241Z,100193.00
2023-05-19T09:01:02.863Z,100194.88
2023-05-19T09:03:31.937Z,100199.09
2023-05-19T09:05:59.459Z,100196.59
2023-05-19T09:08:31.420Z,100196.78
2023-05-19T09:10:58.774Z,100192.09
2023-05-19T09:13:26.264Z,100193.03
2023-05-19T09:15:53.695Z,100189.06
2023-05-19T09:18:21.035Z,100198.25
2023-05-19T09:20:48.440Z,100203.44
2023-05-19T09:23:17.344Z,100206.63
2023-05-19T09:25:49.903Z,100192.88
2023-05-19T09:28:24.944Z,100190.88
2023-05-19T09:31:02.600Z,100181.66
2023-05-19T09:33:32.557Z,100192.09
2023-05-19T09:36:00.316Z,100187.28
2023-05-19T09:38:27.970Z,100187.63
2023-05-19T09:41:00.653Z,100184.66
2023-05-19T09:43:28.424Z,100182.88
2023-05-19T09:45:59.769Z,100184.06
2023-05-19T09:48:27.369Z,100184.03
2023-05-19T09:50:54.876Z,100181.34
2023-05-19T09:53:22.360Z,100181.06
2023-05-19T09:55:50.946Z,100172.22
2023-05-19T09:58:22.386Z,100169.78
2023-05-19T10:00:50.965Z,100168.22
2023-05-19T10:03:19.308Z,100166.50
2023-05-19T10:05:47.443Z,100158.41
2023-05-19T10:08:16.666Z,100149.44
2023-05-19T10:10:45.847Z,100156.22
2023-05-19T10:13:13.594Z,100144.44
2023-05-19T10:15:57.080Z,100148.03
2023-05-19T10:18:26.298Z,100151.41
2023-05-19T10:20:54.343Z,100146.94
2023-05-19T10:23:21.771Z,100133.75
2023-05-19T10:25:50.427Z,100134.13
2023-05-19T10:28:19.896Z,100134.69
2023-05-19T10:30:54.110Z,100139.06
2023-05-19T10:33:35.710Z,100134.47
2023-05-19T10:36:15.666Z,100139.41
2023-05-19T10:38:53.299Z,100134.94
2023-05-19T10:41:31.131Z,100143.63
2023-05-19T10:44:09.245Z,100128.63
2023-05-19T10:46:40.414Z,100127.28
2023-05-19T10:49:08.149Z,100120.44
2023-05-19T10:51:35.735Z,100125.53
2023-05-19T10:54:03.698Z,100123.50
2023-05-19T10:56:32.273Z,100115.56
2023-05-19T10:59:00.177Z,100119.19
2023-05-19T11:01:32.350Z,100112.78
2023-05-19T11:04:06.744Z,100106.59
2023-05-19T11:06:35.246Z,100102.28
2023-05-19T11:09:12.060Z,100096.13
2023-05-19T11:11:46.877Z,100086.97
2023-05-19T11:14:15.954Z,100094.03
2023-05-19T11:16:47.334Z,100100.22
2023-05-19T11:19:25.614Z,100108.31
2023-05-19T11:21:53.506Z,100100.53
2023-05-19T11:24:43.436Z,100098.94
2023-05-19T11:27:35.293Z,100088.81
2023-05-19T11:30:10.526Z,100085.50
2023-05-19T11:32:37.935Z,100083.81
2023-05-19T11:35:07.744Z,100085.91
2023-05-19T11:37:35.656Z,100071.13
2023-05-19T11:40:04.133Z,100076.97
2023-05-19T11:42:35.517Z,100073.81
2023-05-19T11:45:03.710Z,100081.31
2023-05-19T11:47:38.804Z,100071.75
2023-05-19T11:50:16.941Z,100068.19
2023-05-19T11:52:44.638Z,100075.69
2023-05-19T11:55:15.882Z,100066.53
2023-05-19T11:58:02.872Z,100060.06
2023-05-19T12:00:35.781Z,100065.25
2023-05-19T12:03:03.310Z,100070.63
2023-05-19T12:05:35.471Z,100075.63
2023-05-19T12:08:06.460Z,100067.13
2023-05-19T12:10:34.858Z,100058.59
2023-05-19T12:13:02.950Z,100051.94
2023-05-19T12:15:32.032Z,100055.72
2023-05-19T12:18:01.396Z,100061.53
2023-05-19T12:20:30.588Z,100053.56
2023-05-19T12:23:00.892Z,100049.69
2023-05-19T12:25:29.722Z,100052.94
2023-05-19T12:28:00.271Z,100054.38
2023-05-19T12:30:28.580Z,100059.66
2023-05-19T12:32:56.744Z,100051.59
2023-05-19T12:35:28.118Z,100050.69
2023-05-19T12:38:06.905Z,100067.47
2023-05-19T12:40:35.438Z,100049.91
2023-05-19T12:43:03.923Z,100046.81
2023-05-19T12:45:34.311Z,100052.84
2023-05-19T12:48:03.784Z,100050.38
2023-05-19T12:50:31.732Z,100042.66
2023-05-19T12:52:59.230Z,100042.78
2023-05-19T12:55:28.159Z,100043.22
2023-05-19T12:57:55.566Z,100043.47
2023-05-19T13:00:24.079Z,100048.88
2023-05-19T13:02:58.939Z,100041.56
2023-05-19T13:05:27.621Z,100045.53
2023-05-19T13:07:58.806Z,100042.19
2023-05-19T13:10:28.253Z,100041.53
2023-05-19T13:12:56.457Z,100047.22
2023-05-19T13:15:25.363Z,100046.16
2023-05-19T13:17:53.927Z,100042.16
2023-05-19T13:20:21.857Z,100043.75
2023-05-19T13:22:49.823Z,100050.25
2023-05-19T13:25:17.378Z,100049.44
2023-05-19T13:27:48.649Z,100050.66
2023-05-19T13:30:16.409Z,100039.84
2023-05-19T13:32:44.034Z,100049.22
2023-05-19T13:35:12.790Z,100050.03
2023-05-19T13:37:41.486Z,100055.03
2023-05-19T13:40:10.195Z,100053.38
2023-05-19T13:42:37.670Z,100066.53
2023-05-19T13:45:13.953Z,100056.53
2023-05-19T13:47:41.496Z,100050.88
2023-05-19T13:50:09.394Z,100046.91
2023-05-19T13:52:36.777Z,100054.63
2023-05-19T13:55:06.397Z,100048.81
2023-05-19T13:57:34.021Z,100053.78
2023-05-19T14:00:04.827Z,100050.47
2023-05-19T14:02:33.848Z,100051.50
2023-05-19T14:05:01.503Z,100044.63
2023-05-19T14:07:28.934Z,100046.91
2023-05-19T14:09:56.323Z,100040.25
2023-05-19T14:12:35.416Z,100045.88
2023-05-19T14:15:09.134Z,100045.03
2023-05-19T14:17:38.901Z,100036.44
2023-05-19T14:20:07.349Z,100040.28
2023-05-19T14:22:34.693Z,100031.63
2023-05-19T14:25:02.464Z,100034.94
2023-05-19T14:27:29.948Z,100033.50
2023-05-19T14:29:57.488Z,100026.91
2023-05-19T14:32:30.221Z,100024.38
2023-05-19T14:34:59.398Z,100024.72
2023-05-19T14:37:26.922Z,100024.63
2023-05-19T14:39:54.732Z,100017.97
2023-05-19T14:42:22.078Z,100025.66
2023-05-19T14:44:49.572Z,100020.88
2023-05-19T14:47:16.923Z,100028.03
2023-05-19T14:49:46.578Z,100023.63
2023-05-19T14:52:15.557Z,100031.69
2023-05-19T14:54:43.081Z,100023.66
2023-05-19T14:57:10.529Z,100018.00
2023-05-19T14:59:40.668Z,100024.06
2023-05-19T15:02:08.165Z,100021.78
2023-05-19T15:04:35.462Z,100020.06
2023-05-19T15:07:09.702Z,100028.38
2023-05-19T15:09:39.525Z,100023.56
2023-05-19T15:12:07.057Z,100022.66
2023-05-19T15:14:34.500Z,100039.28
2023-05-19T15:17:01.980Z,100039.13
2023-05-19T15:19:29.455Z,100026.25
2023-05-19T15:21:56.854Z,100025.09
2023-05-19T15:24:24.302Z,100019.00
2023-05-19T15:26:53.086Z,100015.13
2023-05-19T15:29:20.428Z,100015.47
2023-05-19T15:31:50.250Z,99997.59
2023-05-19T15:34:17.708Z,100007.56
2023-05-19T15:36:45.087Z,100008.81
2023-05-19T15:39:12.549Z,100004.16
2023-05-19T15:41:40.001Z,100000.16
2023-05-19T15:44:08.868Z,99998.44
2023-05-19T15:46:36.294Z,100006.00
2023-05-19T15:49:03.853Z,100011.75
2023-05-19T15:51:31.346Z,100011.84
2023-05-19T15:53:58.701Z,100014.63
2023-05-19T15:56:26.140Z,100004.16
2023-05-19T15:58:53.435Z,100018.59
2023-05-19T16:01:22.239Z,100022.72
2023-05-19T16:03:49.690Z,100013.38
2023-05-19T16:06:17.243Z,100013.69
2023-05-19T16:08:44.742Z,100012.84
2023-05-19T16:11:12.240Z,100017.56
2023-05-19T16:13:42.858Z,100013.03
2023-05-19T16:16:10.221Z,100014.34
2023-05-19T16:18:39.182Z,100022.13
2023-05-19T16:21:06.639Z,100022.16
2023-05-19T16:23:34.105Z,100022.34
2023-05-19T16:26:01.670Z,100029.88
2023-05-19T16:28:29.033Z,100030.13
2023-05-19T16:30:57.513Z,100036.41
2023-05-19T16:33:24.882Z,100038.88
2023-05-19T16:35:57.543Z,100036.09
2023-05-19T16:38:24.967Z,100031.91
2023-05-19T16:40:54.711Z,100034.72
2023-05-19T16:43:22.157Z,100040.66
2023-05-19T16:45:49.572Z,100034.72
2023-05-19T16:48:16.978Z,100044.28
2023-05-19T16:50:44.533Z,100045.41
2023-05-19T16:53:13.328Z,100047.25
2023-05-19T16:55:42.090Z,100037.00
2023-05-19T16:58:09.563Z,100041.13
2023-05-19T17:00:36.955Z,100049.66
2023-05-19T17:03:04.771Z,100044.31
2023-05-19T17:05:32.188Z,100046.69
2023-05-19T17:07:59.683Z,100052.91
2023-05-19T17:10:28.499Z,100043.25
2023-05-19T17:12:55.790Z,100047.66
2023-05-19T17:15:23.256Z,100041.63
2023-05-19T17:17:50.666Z,100038.34
2023-05-19T17:20:18.176Z,100039.66
2023-05-19T17:23:03.981Z,100050.31
2023-05-19T17:25:44.338Z,100048.91
2023-05-19T17:28:12.049Z,100060.03
2023-05-19T17:30:39.725Z,100052.78
2023-05-19T17:33:07.050Z,100055.19
2023-05-19T17:35:34.711Z,100051.16
2023-05-19T17:38:02.117Z,100047.66
2023-05-19T17:40:29.844Z,100049.91
2023-05-19T17:42:58.567Z,100045.03
2023-05-19T17:45:59.579Z,100052.16
2023-05-19T17:48:48.697Z,100045.34
2023-05-19T17:51:49.020Z,100048.72
2023-05-19T17:54:37.119Z,100064.28
2023-05-19T17:57:25.470Z,100057.56
2023-05-19T18:00:18.381Z,100062.72
2023-05-19T18:03:18.452Z,100064.84
2023-05-19T18:05:46.674Z,100064.22
2023-05-19T18:08:17.344Z,100065.22
2023-05-19T18:10:47.668Z,100071.00
2023-05-19T18:13:44.254Z,100059.88
2023-05-19T18:16:15.505Z,100071.16
2023-05-19T18:19:03.543Z,100062.97
2023-05-19T18:21:39.957Z,100075.59
2023-05-19T18:24:39.360Z,100068.44
2023-05-19T18:27:12.700Z,100076.72
2023-05-19T18:29:46.088Z,100078.41
2023-05-19T18:32:47.362Z,100070.19
2023-05-19T18:35:14.890Z,100077.06
2023-05-19T18:37:44.788Z,100074.97
2023-05-19T18:40:12.248Z,100078.59
2023-05-19T18:42:39.544Z,100077.59
2023-05-19T18:45:07.792Z,100083.50
2023-05-19T18:47:38.438Z,100082.72
2023-05-19T18:50:10.298Z,100082.28
2023-05-19T18:52:37.674Z,100079.94
2023-05-19T18:55:12.550Z,100088.78
2023-05-19T18:58:12.412Z,100092.16
2023-05-19T19:01:00.159Z,100091.81
2023-05-19T19:03:33.118Z,100098.16
2023-05-19T19:06:17.609Z,100090.44
2023-05-19T19:08:50.869Z,100089.47
2023-05-19T19:11:20.417Z,100093.88
2023-05-19T19:14:07.944Z,100086.28
2023-05-19T19:17:07.647Z,100088.28
2023-05-19T19:19:58.323Z,100084.13
2023-05-19T19:22:56.151Z,100081.78
2023-05-19T19:25:26.130Z,100088.13
2023-05-19T19:27:59.422Z,100084.13
2023-05-19T19:30:29.869Z,100088.66
2023-05-19T19:33:06.978Z,100081.63
2023-05-19T19:35:37.405Z,100084.97
2023-05-19T19:38:14.772Z,100075.25
2023-05-19T19:40:51.223Z,100085.50
2023-05-19T19:43:18.893Z,100077.28
2023-05-19T19:45:46.428Z,100079.44
2023-05-19T19:48:19.258Z,100081.78
2023-05-19T19:50:53.692Z,100084.34
2023-05-19T19:53:45.645Z,100089.34
2023-05-19T19:56:45.484Z,100093.50
2023-05-19T19:59:12.833Z,100094.69
2023-05-19T20:01:46.303Z,100094.53
2023-05-19T20:04:13.989Z,100095.88
2023-05-19T20:06:41.400Z,100095.38
2023-05-19T20:09:10.091Z,100093.56
2023-05-19T20:11:49.031Z,100105.56
2023-05-19T20:14:35.057Z,100107.44
2023-05-19T20:17:20.791Z,100102.38
2023-05-19T20:20:12.133Z,100125.50
2023-05-19T20:22:58.058Z,100120.97
2023-05-19T20:25:58.857Z,100123.03
2023-05-19T20:28:48.929Z,100125.38
2023-05-19T20:31:52.364Z,100123.03
2023-05-19T20:34:23.024Z,100120.84
2023-05-19T20:37:09.000Z,100126.75
2023-05-19T20:39:37.439Z,100127.88
2023-05-19T20:42:20.764Z,100134.03
2023-05-19T20:44:50.486Z,100128.38
2023-05-19T20:47:17.851Z,100136.44
2023-05-19T20:49:45.272Z,100138.84
2023-05-19T20:52:12.688Z,100128.44
2023-05-19T20:54:42.678Z,100134.19
2023-05-19T20:57:17.347Z,100134.34
2023-05-19T20:59:46.393Z,100139.41
2023-05-19T21:02:13.731Z,100137.72
2023-05-19T21:04:41.148Z,100138.75
2023-05-19T21:07:11.555Z,100136.88
2023-05-19T21:09:39.124Z,100141.38
2023-05-19T21:12:15.172Z,100126.50
2023-05-19T21:14:42.677Z,100141.13
2023-05-19T21:17:11.526Z,100130.25
2023-05-19T21:19:41.465Z,100135.75
2023-05-19T21:22:17.887Z,100132.44
2023-05-19T21:25:08.838Z,100130.13
2023-05-19T21:27:44.266Z,100125.88
2023-05-19T21:30:12.799Z,100132.25
2023-05-19T21:32:43.906Z,100124.59
2023-05-19T21:35:11.279Z,100123.81
2023-05-19T21:37:38.607Z,100122.13
2023-05-19T21:40:07.265Z,100117.09
2023-05-19T21:42:34.890Z,100120.31
2023-05-19T21:45:02.321Z,100109.28
2023-05-19T21:47:29.719Z,100114.44
2023-05-19T21:49:58.577Z,100109.44
2023-05-19T21:52:26.195Z,100106.63
2023-05-19T21:54:53.673Z,100105.94
2023-05-19T21:57:21.037Z,100108.97
2023-05-19T21:59:48.595Z,100097.22
2023-05-19T22:02:16.141Z,100102.28
2023-05-19T22:04:43.481Z,100101.91
2023-05-19T22:07:12.266Z,100098.59
2023-05-19T22:09:41.878Z,100096.84
2023-05-19T22:12:09.330Z,100100.22
2023-05-19T22:14:36.682Z,100090.88
2023-05-19T22:17:04.341Z,100087.84
2023-05-19T22:19:31.889Z,100097.41
2023-05-19T22:22:09.716Z,100098.06
2023-05-19T22:24:41.802Z,100094.88
2023-05-19T22:27:09.252Z,100089.84
2023-05-19T22:29:37.342Z,100088.66
2023-05-19T22:32:05.662Z,100085.16
2023-05-19T22:34:33.078Z,100084.81
2023-05-19T22:37:00.507Z,100082.31
2023-05-19T22:39:27.979Z,100087.16
2023-05-19T22:41:56.685Z,100081.47
2023-05-19T22:44:24.148Z,100082.63
2023-05-19T22:46:51.448Z,100075.41
2023-05-19T22:49:18.771Z,100075.09
2023-05-19T22:51:46.141Z,100077.59
2023-05-19T22:54:13.514Z,100066.19
2023-05-19T22:56:42.109Z,100068.03
2023-05-19T22:59:11.878Z,100057.63
2023-05-19T23:01:39.262Z,100054.63
2023-05-19T23:04:06.761Z,100044.56
2023-05-19T23:06:34.146Z,100049.75
2023-05-19T23:09:02.420Z,100043.38
2023-05-19T23:11:29.993Z,100041.19
2023-05-19T23:13:57.418Z,100036.84
2023-05-19T23:16:26.165Z,100038.19
2023-05-19T23:18:53.544Z,100032.69
2023-05-19T23:21:21.148Z,100038.50
2023-05-19T23:23:49.341Z,100028.47
2023-05-19T23:26:16.855Z,100025.78
2023-05-19T23:28:44.502Z,100025.78
2023-05-19T23:31:11.920Z,100019.41
2023-05-19T23:33:40.761Z,100028.63
2023-05-19T23:36:10.039Z,100019.41
2023-05-19T23:38:37.845Z,100020.09
2023-05-19T23:41:05.391Z,100016.19
2023-05-19T23:43:41.732Z,100015.00
2023-05-19T23:46:09.369Z,100013.00
2023-05-19T23:48:36.954Z,100020.38
2023-05-19T23:51:05.905Z,100014.50
2023-05-19T23:53:33.267Z,100017.88
2023-05-19T23:56:00.645Z,100015.19
2023-05-19T23:58:28.030Z,100015.53
